createdAt,value
2017-08-11T00:00:57.231Z,1008.33
2017-08-11T00:01:57.210Z,1008.34
2017-08-11T00:02:57.190Z,1008.34
2017-08-11T00:03:57.166Z,1008.34
2017-08-11T00:04:57.142Z,1008.34
2017-08-11T00:05:57.119Z,1008.4
2017-08-11T00:06:57.098Z,1008.36
2017-08-11T00:07:57.075Z,1008.39
2017-08-11T00:08:57.054Z,1008.4
2017-08-11T00:09:57.029Z,1008.42
2017-08-11T00:10:57.009Z,1008.43
2017-08-11T00:11:56.986Z,1008.37
2017-08-11T00:12:56.963Z,1008.42
2017-08-11T00:13:56.941Z,1008.41
2017-08-11T00:14:56.920Z,1008.43
2017-08-11T00:15:56.897Z,1008.45
2017-08-11T00:16:56.874Z,1008.39
2017-08-11T00:17:56.853Z,1008.38
2017-08-11T00:18:56.830Z,1008.39
2017-08-11T00:19:56.809Z,1008.38
2017-08-11T00:20:56.786Z,1008.37
2017-08-11T00:21:56.763Z,1008.37
2017-08-11T00:22:56.742Z,1008.35
2017-08-11T00:23:56.719Z,1008.31
2017-08-11T00:24:56.697Z,1008.33
2017-08-11T00:25:56.675Z,1008.32
2017-08-11T00:26:56.654Z,1008.33
2017-08-11T00:27:56.630Z,1008.32
2017-08-11T00:28:56.607Z,1008.31
2017-08-11T00:29:56.585Z,1008.29
2017-08-11T00:30:56.563Z,1008.29
2017-08-11T00:31:56.541Z,1008.3
2017-08-11T00:32:56.518Z,1008.27
2017-08-11T00:33:56.498Z,1008.23
2017-08-11T00:34:56.473Z,1008.19
2017-08-11T00:35:56.452Z,1008.21
2017-08-11T00:36:56.429Z,1008.25
2017-08-11T00:37:56.407Z,1008.28
2017-08-11T00:38:56.385Z,1008.27
2017-08-11T00:39:56.362Z,1008.3
2017-08-11T00:40:56.341Z,1008.27
2017-08-11T00:41:56.317Z,1008.28
2017-08-11T00:42:56.296Z,1008.27
2017-08-11T00:43:56.274Z,1008.27
2017-08-11T00:44:56.251Z,1008.28
2017-08-11T00:45:56.229Z,1008.25
2017-08-11T00:46:56.206Z,1008.22
2017-08-11T00:47:56.183Z,1008.23
2017-08-11T00:48:56.163Z,1008.24
2017-08-11T00:49:56.139Z,1008.22
2017-08-11T00:50:56.118Z,1008.22
2017-08-11T00:51:56.096Z,1008.23
2017-08-11T00:52:56.072Z,1008.23
2017-08-11T00:53:56.051Z,1008.22
2017-08-11T00:54:56.029Z,1008.26
2017-08-11T00:55:56.006Z,1008.22
2017-08-11T00:56:55.984Z,1008.25
2017-08-11T00:57:55.962Z,1008.23
2017-08-11T00:58:55.939Z,1008.22
2017-08-11T00:59:55.918Z,1008.2
2017-08-11T01:00:55.894Z,1008.21
2017-08-11T01:01:55.873Z,1008.17
2017-08-11T01:02:55.850Z,1008.2
2017-08-11T01:03:55.828Z,1008.16
2017-08-11T01:04:55.806Z,1008.15
2017-08-11T01:05:55.783Z,1008.17
2017-08-11T01:06:55.761Z,1008.17
2017-08-11T01:07:55.739Z,1008.17
2017-08-11T01:08:55.717Z,1008.15
2017-08-11T01:09:55.695Z,1008.14
2017-08-11T01:10:55.672Z,1008.12
2017-08-11T01:11:55.648Z,1008.1
2017-08-11T01:12:55.627Z,1008.14
2017-08-11T01:13:55.604Z,1008.06
2017-08-11T01:14:55.582Z,1008.08
2017-08-11T01:15:55.560Z,1008.06
2017-08-11T01:16:55.537Z,1008.03
2017-08-11T01:17:55.515Z,1008.01
2017-08-11T01:18:55.491Z,1008.01
2017-08-11T01:19:55.469Z,1007.97
2017-08-11T01:20:55.447Z,1007.99
2017-08-11T01:21:55.426Z,1007.99
2017-08-11T01:22:55.401Z,1007.96
2017-08-11T01:23:55.380Z,1007.94
2017-08-11T01:24:55.357Z,1007.96
2017-08-11T01:25:55.334Z,1007.95
2017-08-11T01:26:55.362Z,1007.94
2017-08-11T01:27:55.290Z,1007.95
2017-08-11T01:28:55.266Z,1007.99
2017-08-11T01:29:55.244Z,1007.94
2017-08-11T01:30:55.221Z,1007.91
2017-08-11T01:31:55.199Z,1007.9
2017-08-11T01:32:55.176Z,1007.81
2017-08-11T01:33:55.153Z,1007.81
2017-08-11T01:34:55.130Z,1007.75
2017-08-11T01:35:55.108Z,1007.76
2017-08-11T01:36:55.085Z,1007.74
2017-08-11T01:37:55.063Z,1007.75
2017-08-11T01:38:55.041Z,1007.7
2017-08-11T01:39:55.018Z,1007.73
2017-08-11T01:40:54.993Z,1007.7
2017-08-11T01:41:54.971Z,1007.73
2017-08-11T01:42:54.947Z,1007.73
2017-08-11T01:43:54.927Z,1007.68
2017-08-11T01:44:54.904Z,1007.62
2017-08-11T01:45:54.880Z,1007.6
2017-08-11T01:46:54.858Z,1007.63
2017-08-11T01:47:54.835Z,1007.58
2017-08-11T01:48:54.812Z,1007.54
2017-08-11T01:49:54.790Z,1007.55
2017-08-11T01:50:54.767Z,1007.55
2017-08-11T01:51:54.743Z,1007.58
2017-08-11T01:52:54.721Z,1007.62
2017-08-11T01:53:54.699Z,1007.63
2017-08-11T01:54:54.676Z,1007.6
2017-08-11T01:55:54.653Z,1007.59
2017-08-11T01:56:54.630Z,1007.6
2017-08-11T01:57:54.608Z,1007.55
2017-08-11T01:58:54.585Z,1007.58
2017-08-11T01:59:54.562Z,1007.61
2017-08-11T02:00:54.538Z,1007.56
2017-08-11T02:01:54.517Z,1007.55
2017-08-11T02:02:54.494Z,1007.54
2017-08-11T02:03:54.471Z,1007.54
2017-08-11T02:04:54.449Z,1007.58
2017-08-11T02:05:54.425Z,1007.6
2017-08-11T02:06:54.402Z,1007.63
2017-08-11T02:07:54.380Z,1007.58
2017-08-11T02:08:54.357Z,1007.55
2017-08-11T02:09:54.332Z,1007.54
2017-08-11T02:10:54.309Z,1007.59
2017-08-11T02:11:54.287Z,1007.56
2017-08-11T02:12:54.265Z,1007.59
2017-08-11T02:13:54.241Z,1007.6
2017-08-11T02:14:54.219Z,1007.6
2017-08-11T02:15:54.197Z,1007.6
2017-08-11T02:16:54.175Z,1007.59
2017-08-11T02:17:54.149Z,1007.65
2017-08-11T02:18:54.128Z,1007.63
2017-08-11T02:19:54.105Z,1007.63
2017-08-11T02:20:54.081Z,1007.64
2017-08-11T02:21:54.059Z,1007.67
2017-08-11T02:22:54.034Z,1007.68
2017-08-11T02:23:54.014Z,1007.71
2017-08-11T02:24:53.992Z,1007.76
2017-08-11T02:25:53.966Z,1007.69
2017-08-11T02:26:53.945Z,1007.7
2017-08-11T02:27:53.920Z,1007.69
2017-08-11T02:28:53.897Z,1007.68
2017-08-11T02:29:53.875Z,1007.72
2017-08-11T02:30:53.853Z,1007.67
2017-08-11T02:31:53.828Z,1007.62
2017-08-11T02:32:53.815Z,1007.64
2017-08-11T02:33:53.782Z,1007.6
2017-08-11T02:34:53.759Z,1007.59
2017-08-11T02:35:53.737Z,1007.61
2017-08-11T02:36:53.713Z,1007.57
2017-08-11T02:37:53.691Z,1007.6
2017-08-11T02:38:53.667Z,1007.55
2017-08-11T02:39:53.643Z,1007.57
2017-08-11T02:40:53.620Z,1007.57
2017-08-11T02:41:53.597Z,1007.56
2017-08-11T02:42:53.574Z,1007.58
2017-08-11T02:43:53.575Z,1007.6
2017-08-11T02:44:53.529Z,1007.59
2017-08-11T02:45:53.505Z,1007.55
2017-08-11T02:46:53.483Z,1007.59
2017-08-11T02:47:53.459Z,1007.57
2017-08-11T02:48:53.436Z,1007.59
2017-08-11T02:49:53.413Z,1007.6
2017-08-11T02:50:53.391Z,1007.55
2017-08-11T02:51:53.366Z,1007.6
2017-08-11T02:52:53.345Z,1007.6
2017-08-11T02:53:53.320Z,1007.6
2017-08-11T02:54:53.305Z,1007.58
2017-08-11T02:55:53.276Z,1007.54
2017-08-11T02:56:53.252Z,1007.58
2017-08-11T02:57:53.229Z,1007.53
2017-08-11T02:58:53.205Z,1007.49
2017-08-11T02:59:53.183Z,1007.49
2017-08-11T03:00:53.159Z,1007.44
2017-08-11T03:01:53.139Z,1007.46
2017-08-11T03:02:53.112Z,1007.41
2017-08-11T03:03:53.091Z,1007.42
2017-08-11T03:04:53.073Z,1007.44
2017-08-11T03:05:53.045Z,1007.41
2017-08-11T03:06:53.021Z,1007.44
2017-08-11T03:07:52.998Z,1007.42
2017-08-11T03:08:52.975Z,1007.47
2017-08-11T03:09:52.951Z,1007.45
2017-08-11T03:10:52.929Z,1007.45
2017-08-11T03:11:52.905Z,1007.47
2017-08-11T03:12:52.882Z,1007.45
2017-08-11T03:13:52.859Z,1007.48
2017-08-11T03:14:52.837Z,1007.43
2017-08-11T03:15:52.813Z,1007.44
2017-08-11T03:16:52.791Z,1007.43
2017-08-11T03:17:52.767Z,1007.4
2017-08-11T03:18:52.745Z,1007.41
2017-08-11T03:19:52.721Z,1007.41
2017-08-11T03:20:52.698Z,1007.42
2017-08-11T03:21:52.677Z,1007.44
2017-08-11T03:22:52.651Z,1007.43
2017-08-11T03:23:52.630Z,1007.42
2017-08-11T03:24:52.607Z,1007.39
2017-08-11T03:25:52.588Z,1007.37
2017-08-11T03:26:52.560Z,1007.37
2017-08-11T03:27:52.537Z,1007.4
2017-08-11T03:28:52.513Z,1007.38
2017-08-11T03:29:52.492Z,1007.34
2017-08-11T03:30:52.474Z,1007.35
2017-08-11T03:31:52.446Z,1007.32
2017-08-11T03:32:52.423Z,1007.35
2017-08-11T03:33:52.398Z,1007.34
2017-08-11T03:34:52.376Z,1007.34
2017-08-11T03:35:52.353Z,1007.31
2017-08-11T03:36:52.381Z,1007.25
2017-08-11T03:37:52.307Z,1007.26
2017-08-11T03:38:52.283Z,1007.23
2017-08-11T03:39:52.260Z,1007.2
2017-08-11T03:40:52.237Z,1007.17
2017-08-11T03:41:52.213Z,1007.18
2017-08-11T03:42:52.192Z,1007.16
2017-08-11T03:43:52.169Z,1007.12
2017-08-11T03:44:52.145Z,1007.16
2017-08-11T03:45:52.122Z,1007.16
2017-08-11T03:46:52.098Z,1007.13
2017-08-11T03:47:52.075Z,1007.18
2017-08-11T03:48:52.055Z,1007.16
2017-08-11T03:49:52.028Z,1007.12
2017-08-11T03:50:52.005Z,1007.13
2017-08-11T03:51:51.981Z,1007.18
2017-08-11T03:52:51.959Z,1007.18
2017-08-11T03:53:51.935Z,1007.18
2017-08-11T03:54:51.913Z,1007.16
2017-08-11T03:55:51.888Z,1007.16
2017-08-11T03:56:51.867Z,1007.17
2017-08-11T03:57:51.842Z,1007.15
2017-08-11T03:58:51.820Z,1007.19
2017-08-11T03:59:51.796Z,1007.22
2017-08-11T04:00:51.773Z,1007.21
2017-08-11T04:01:51.749Z,1007.26
2017-08-11T04:02:51.725Z,1007.2
2017-08-11T04:03:51.703Z,1007.23
2017-08-11T04:04:51.680Z,1007.22
2017-08-11T04:05:51.657Z,1007.23
2017-08-11T04:06:51.634Z,1007.18
2017-08-11T04:07:51.611Z,1007.17
2017-08-11T04:08:51.587Z,1007.18
2017-08-11T04:09:51.564Z,1007.12
2017-08-11T04:10:51.541Z,1007.07
2017-08-11T04:11:51.517Z,1007.11
2017-08-11T04:12:51.496Z,1007.05
2017-08-11T04:13:51.472Z,1007.03
2017-08-11T04:14:51.448Z,1007.01
2017-08-11T04:15:51.426Z,1007.05
2017-08-11T04:16:51.402Z,1007.01
2017-08-11T04:17:51.384Z,1006.95
2017-08-11T04:18:51.355Z,1006.88
2017-08-11T04:19:51.332Z,1006.93
2017-08-11T04:20:51.308Z,1006.93
2017-08-11T04:21:51.285Z,1006.97
2017-08-11T04:22:51.264Z,1006.98
2017-08-11T04:23:51.240Z,1006.99
2017-08-11T04:24:51.216Z,1007.02
2017-08-11T04:25:51.194Z,1007
2017-08-11T04:26:51.170Z,1007.09
2017-08-11T04:27:51.148Z,1007.05
2017-08-11T04:28:51.123Z,1007.1
2017-08-11T04:29:51.100Z,1007.11
2017-08-11T04:30:51.078Z,1007.11
2017-08-11T04:31:51.055Z,1007.07
2017-08-11T04:32:51.031Z,1007.06
2017-08-11T04:33:51.008Z,1007
2017-08-11T04:34:50.986Z,1006.88
2017-08-11T04:35:50.965Z,1006.83
2017-08-11T04:36:50.938Z,1006.8
2017-08-11T04:37:50.917Z,1006.81
2017-08-11T04:38:50.893Z,1006.84
2017-08-11T04:39:50.869Z,1006.93
2017-08-11T04:40:50.846Z,1006.96
2017-08-11T04:41:50.823Z,1007.01
2017-08-11T04:42:50.801Z,1007.06
2017-08-11T04:43:50.777Z,1007.13
2017-08-11T04:44:50.755Z,1007.12
2017-08-11T04:45:50.734Z,1007.12
2017-08-11T04:46:50.708Z,1007.05
2017-08-11T04:47:50.685Z,1007.02
2017-08-11T04:48:50.661Z,1006.99
2017-08-11T04:49:50.639Z,1007.01
2017-08-11T04:50:50.614Z,1007
2017-08-11T04:51:50.592Z,1007
2017-08-11T04:52:50.568Z,1007.04
2017-08-11T04:53:50.546Z,1007.01
2017-08-11T04:54:50.522Z,1006.99
2017-08-11T04:55:50.503Z,1007.03
2017-08-11T04:56:50.477Z,1007.02
2017-08-11T04:57:50.453Z,1007.03
2017-08-11T04:58:50.429Z,1007.03
2017-08-11T04:59:50.410Z,1007.03
2017-08-11T05:00:50.385Z,1007.07
2017-08-11T05:01:50.361Z,1007.07
2017-08-11T05:02:50.337Z,1007.02
2017-08-11T05:03:50.315Z,1007
2017-08-11T05:04:50.292Z,1007.07
2017-08-11T05:05:50.269Z,1007.1
2017-08-11T05:06:50.246Z,1007.08
2017-08-11T05:07:50.223Z,1007.08
2017-08-11T05:08:50.200Z,1007.06
2017-08-11T05:09:50.176Z,1007.07
2017-08-11T05:10:50.154Z,1007.05
2017-08-11T05:11:50.131Z,1007.04
2017-08-11T05:12:50.107Z,1006.98
2017-08-11T05:13:50.085Z,1006.96
2017-08-11T05:14:50.062Z,1006.99
2017-08-11T05:15:50.038Z,1006.99
2017-08-11T05:16:50.015Z,1007.02
2017-08-11T05:17:49.992Z,1007.07
2017-08-11T05:18:49.969Z,1007.06
2017-08-11T05:19:49.970Z,1007.03
2017-08-11T05:20:49.921Z,1007.05
2017-08-11T05:21:49.900Z,1007.06
2017-08-11T05:22:49.929Z,1007.06
2017-08-11T05:23:49.854Z,1007.05
2017-08-11T05:24:49.830Z,1007.04
2017-08-11T05:25:49.807Z,1007.06
2017-08-11T05:26:49.783Z,1007.04
2017-08-11T05:27:49.761Z,1007.03
2017-08-11T05:28:49.737Z,1007
2017-08-11T05:29:49.715Z,1007.05
2017-08-11T05:30:49.692Z,1007.08
2017-08-11T05:31:49.670Z,1007.05
2017-08-11T05:32:49.648Z,1007.07
2017-08-11T05:33:49.623Z,1007.04
2017-08-11T05:34:49.599Z,1007.05
2017-08-11T05:35:49.577Z,1007.05
2017-08-11T05:36:49.554Z,1007.07
2017-08-11T05:37:49.530Z,1007.09
2017-08-11T05:38:49.567Z,1007.12
2017-08-11T05:39:49.486Z,1007.08
2017-08-11T05:40:49.463Z,1007.04
2017-08-11T05:41:49.439Z,1007
2017-08-11T05:42:49.417Z,1007.02
2017-08-11T05:43:49.644Z,1006.98
2017-08-11T05:44:49.370Z,1006.96
2017-08-11T05:45:49.347Z,1006.97
2017-08-11T05:46:49.325Z,1006.98
2017-08-11T05:47:49.303Z,1006.98
2017-08-11T05:48:49.281Z,1006.97
2017-08-11T05:49:49.257Z,1006.99
2017-08-11T05:50:49.235Z,1006.96
2017-08-11T05:51:49.213Z,1006.96
2017-08-11T05:52:49.189Z,1006.92
2017-08-11T05:53:49.166Z,1006.89
2017-08-11T05:54:49.144Z,1006.9
2017-08-11T05:55:49.121Z,1006.86
2017-08-11T05:56:49.098Z,1006.83
2017-08-11T05:57:49.077Z,1006.87
2017-08-11T05:58:49.053Z,1006.82
2017-08-11T05:59:49.031Z,1006.81
2017-08-11T06:00:49.009Z,1006.83
2017-08-11T06:01:48.987Z,1006.85
2017-08-11T06:02:48.964Z,1006.78
2017-08-11T06:03:48.947Z,1006.76
2017-08-11T06:04:48.918Z,1006.76
2017-08-11T06:05:48.896Z,1006.71
2017-08-11T06:06:48.875Z,1006.68
2017-08-11T06:07:48.856Z,1006.65
2017-08-11T06:08:48.830Z,1006.61
2017-08-11T06:09:48.807Z,1006.6
2017-08-11T06:10:48.784Z,1006.58
2017-08-11T06:11:48.763Z,1006.54
2017-08-11T06:12:48.740Z,1006.46
2017-08-11T06:13:48.719Z,1006.46
2017-08-11T06:14:48.698Z,1006.4
2017-08-11T06:15:48.673Z,1006.38
2017-08-11T06:16:48.650Z,1006.39
2017-08-11T06:17:48.629Z,1006.38
2017-08-11T06:18:48.610Z,1006.38
2017-08-11T06:19:48.585Z,1006.36
2017-08-11T06:20:48.562Z,1006.35
2017-08-11T06:21:48.540Z,1006.35
2017-08-11T06:22:48.517Z,1006.37
2017-08-11T06:23:48.495Z,1006.38
2017-08-11T06:24:48.483Z,1006.37
2017-08-11T06:25:48.454Z,1006.43
2017-08-11T06:26:48.429Z,1006.4
2017-08-11T06:27:48.409Z,1006.44
2017-08-11T06:28:48.388Z,1006.41
2017-08-11T06:29:48.364Z,1006.39
2017-08-11T06:30:48.342Z,1006.37
2017-08-11T06:31:48.322Z,1006.37
2017-08-11T06:32:48.299Z,1006.41
2017-08-11T06:33:48.278Z,1006.41
2017-08-11T06:34:48.255Z,1006.41
2017-08-11T06:35:48.244Z,1006.49
2017-08-11T06:36:48.212Z,1006.49
2017-08-11T06:37:48.190Z,1006.51
2017-08-11T06:38:48.169Z,1006.52
2017-08-11T06:39:48.147Z,1006.53
2017-08-11T06:40:48.125Z,1006.54
2017-08-11T06:41:48.104Z,1006.6
2017-08-11T06:42:48.083Z,1006.63
2017-08-11T06:43:48.059Z,1006.61
2017-08-11T06:44:48.037Z,1006.62
2017-08-11T06:45:48.015Z,1006.66
2017-08-11T06:46:47.995Z,1006.64
2017-08-11T06:47:47.972Z,1006.6
2017-08-11T06:48:47.951Z,1006.57
2017-08-11T06:49:47.928Z,1006.59
2017-08-11T06:50:47.906Z,1006.57
2017-08-11T06:51:47.886Z,1006.56
2017-08-11T06:52:47.862Z,1006.54
2017-08-11T06:53:47.841Z,1006.5
2017-08-11T06:54:48.110Z,1006.5
2017-08-11T06:55:47.962Z,1006.48
2017-08-11T06:56:47.883Z,1006.45
2017-08-11T06:57:47.768Z,1006.43
2017-08-11T06:58:48.017Z,1006.44
2017-08-11T06:59:47.932Z,1006.43
2017-08-11T07:00:47.723Z,1006.46
2017-08-11T07:01:48.087Z,1006.46
2017-08-11T07:02:48.054Z,1006.52
2017-08-11T07:03:47.814Z,1006.56
2017-08-11T07:04:47.604Z,1006.53
2017-08-11T07:05:47.584Z,1006.51
2017-08-11T07:06:47.562Z,1006.53
2017-08-11T07:07:47.765Z,1006.52
2017-08-11T07:08:47.521Z,1006.51
2017-08-11T07:09:47.500Z,1006.53
2017-08-11T07:10:47.746Z,1006.55
2017-08-11T07:11:47.456Z,1006.52
2017-08-11T07:12:47.433Z,1006.54
2017-08-11T07:13:47.413Z,1006.48
2017-08-11T07:14:47.391Z,1006.5
2017-08-11T07:15:47.370Z,1006.49
2017-08-11T07:16:47.348Z,1006.44
2017-08-11T07:17:47.326Z,1006.46
2017-08-11T07:18:47.305Z,1006.44
2017-08-11T07:19:47.284Z,1006.48
2017-08-11T07:20:47.263Z,1006.5
2017-08-11T07:21:47.301Z,1006.51
2017-08-11T07:22:47.218Z,1006.53
2017-08-11T07:23:47.197Z,1006.57
2017-08-11T07:24:47.176Z,1006.61
2017-08-11T07:25:47.155Z,1006.61
2017-08-11T07:26:47.134Z,1006.64
2017-08-11T07:27:47.113Z,1006.6
2017-08-11T07:28:47.091Z,1006.68
2017-08-11T07:29:47.070Z,1006.68
2017-08-11T07:30:47.049Z,1006.71
2017-08-11T07:31:47.027Z,1006.76
2017-08-11T07:32:47.010Z,1006.8
2017-08-11T07:33:46.983Z,1006.8
2017-08-11T07:34:46.962Z,1006.77
2017-08-11T07:35:46.941Z,1006.77
2017-08-11T07:36:46.920Z,1006.79
2017-08-11T07:37:46.897Z,1006.73
2017-08-11T07:38:46.875Z,1006.76
2017-08-11T07:39:46.855Z,1006.71
2017-08-11T07:40:46.834Z,1006.7
2017-08-11T07:41:46.816Z,1006.72
2017-08-11T07:42:46.790Z,1006.74
2017-08-11T07:43:46.767Z,1006.71
2017-08-11T07:44:46.746Z,1006.77
2017-08-11T07:45:46.723Z,1006.74
2017-08-11T07:46:46.705Z,1006.7
2017-08-11T07:47:46.687Z,1006.7
2017-08-11T07:48:46.662Z,1006.69
2017-08-11T07:49:46.639Z,1006.67
2017-08-11T07:50:46.619Z,1006.65
2017-08-11T07:51:46.597Z,1006.67
2017-08-11T07:52:46.575Z,1006.68
2017-08-11T07:53:46.554Z,1006.66
2017-08-11T07:54:46.532Z,1006.64
2017-08-11T07:55:46.512Z,1006.62
2017-08-11T07:56:46.492Z,1006.64
2017-08-11T07:57:46.467Z,1006.69
2017-08-11T07:58:46.469Z,1006.63
2017-08-11T07:59:46.426Z,1006.63
2017-08-11T08:00:46.404Z,1006.64
2017-08-11T08:01:46.384Z,1006.65
2017-08-11T08:02:46.361Z,1006.62
2017-08-11T08:03:46.340Z,1006.65
2017-08-11T08:04:46.318Z,1006.58
2017-08-11T08:05:46.297Z,1006.6
2017-08-11T08:06:46.277Z,1006.62
2017-08-11T08:07:46.254Z,1006.57
2017-08-11T08:08:46.234Z,1006.53
2017-08-11T08:09:46.213Z,1006.53
2017-08-11T08:10:46.195Z,1006.56
2017-08-11T08:11:46.170Z,1006.58
2017-08-11T08:12:46.150Z,1006.51
2017-08-11T08:13:46.132Z,1006.49
2017-08-11T08:14:46.108Z,1006.56
2017-08-11T08:15:46.088Z,1006.53
2017-08-11T08:16:46.115Z,1006.5
2017-08-11T08:17:46.047Z,1006.52
2017-08-11T08:18:46.025Z,1006.5
2017-08-11T08:19:46.004Z,1006.49
2017-08-11T08:20:45.984Z,1006.53
2017-08-11T08:21:45.963Z,1006.5
2017-08-11T08:22:45.945Z,1006.46
2017-08-11T08:23:45.922Z,1006.52
2017-08-11T08:24:45.901Z,1006.53
2017-08-11T08:25:45.880Z,1006.52
2017-08-11T08:26:45.859Z,1006.5
2017-08-11T08:27:45.838Z,1006.52
2017-08-11T08:28:45.818Z,1006.54
2017-08-11T08:29:45.797Z,1006.56
2017-08-11T08:30:45.778Z,1006.56
2017-08-11T08:31:45.757Z,1006.57
2017-08-11T08:32:45.737Z,1006.55
2017-08-11T08:33:45.718Z,1006.56
2017-08-11T08:34:45.695Z,1006.6
2017-08-11T08:35:45.675Z,1006.61
2017-08-11T08:36:45.653Z,1006.61
2017-08-11T08:37:45.631Z,1006.64
2017-08-11T08:38:45.612Z,1006.65
2017-08-11T08:39:45.592Z,1006.62
2017-08-11T08:40:45.573Z,1006.62
2017-08-11T08:41:45.551Z,1006.64
2017-08-11T08:42:45.530Z,1006.59
2017-08-11T08:43:45.510Z,1006.58
2017-08-11T08:44:45.487Z,1006.57
2017-08-11T08:45:45.467Z,1006.64
2017-08-11T08:46:45.447Z,1006.63
2017-08-11T08:47:45.427Z,1006.57
2017-08-11T08:48:45.406Z,1006.66
2017-08-11T08:49:45.387Z,1006.63
2017-08-11T08:50:45.367Z,1006.62
2017-08-11T08:51:45.345Z,1006.66
2017-08-11T08:52:45.323Z,1006.6
2017-08-11T08:53:45.306Z,1006.64
2017-08-11T08:54:45.285Z,1006.57
2017-08-11T08:55:45.263Z,1006.53
2017-08-11T08:56:45.243Z,1006.57
2017-08-11T08:57:45.227Z,1006.55
2017-08-11T08:58:45.201Z,1006.58
2017-08-11T08:59:45.180Z,1006.57
2017-08-11T09:00:45.160Z,1006.57
2017-08-11T09:01:45.142Z,1006.6
2017-08-11T09:02:45.122Z,1006.64
2017-08-11T09:03:45.102Z,1006.6
2017-08-11T09:04:45.081Z,1006.65
2017-08-11T09:05:45.062Z,1006.69
2017-08-11T09:06:45.042Z,1006.7
2017-08-11T09:07:45.022Z,1006.71
2017-08-11T09:08:45.001Z,1006.71
2017-08-11T09:09:44.982Z,1006.67
2017-08-11T09:10:44.961Z,1006.71
2017-08-11T09:11:44.942Z,1006.7
2017-08-11T09:12:44.923Z,1006.69
2017-08-11T09:13:44.902Z,1006.69
2017-08-11T09:14:44.882Z,1006.74
2017-08-11T09:15:44.867Z,1006.75
2017-08-11T09:16:44.842Z,1006.77
2017-08-11T09:17:44.822Z,1006.77
2017-08-11T09:18:44.805Z,1006.8
2017-08-11T09:19:44.785Z,1006.8
2017-08-11T09:20:44.763Z,1006.83
2017-08-11T09:21:44.742Z,1006.84
2017-08-11T09:22:44.723Z,1006.83
2017-08-11T09:23:44.702Z,1006.9
2017-08-11T09:24:44.680Z,1006.89
2017-08-11T09:25:44.660Z,1006.85
2017-08-11T09:26:44.648Z,1006.88
2017-08-11T09:27:44.623Z,1006.92
2017-08-11T09:28:44.602Z,1006.88
2017-08-11T09:29:44.582Z,1006.83
2017-08-11T09:30:44.564Z,1006.84
2017-08-11T09:31:44.544Z,1006.88
2017-08-11T09:32:44.523Z,1006.9
2017-08-11T09:33:44.503Z,1006.91
2017-08-11T09:34:44.485Z,1006.96
2017-08-11T09:35:44.462Z,1006.95
2017-08-11T09:36:44.442Z,1006.96
2017-08-11T09:37:44.424Z,1007.03
2017-08-11T09:38:44.404Z,1007.01
2017-08-11T09:39:44.382Z,1007.01
2017-08-11T09:40:44.362Z,1007.02
2017-08-11T09:41:44.342Z,1006.98
2017-08-11T09:42:44.418Z,1006.96
2017-08-11T09:43:44.303Z,1006.95
2017-08-11T09:44:44.281Z,1006.98
2017-08-11T09:45:44.263Z,1006.97
2017-08-11T09:46:44.291Z,1006.97
2017-08-11T09:47:44.222Z,1006.96
2017-08-11T09:48:44.202Z,1006.93
2017-08-11T09:49:44.459Z,1006.98
2017-08-11T09:50:44.162Z,1007
2017-08-11T09:51:44.142Z,1006.94
2017-08-11T09:52:44.123Z,1006.97
2017-08-11T09:53:44.101Z,1006.93
2017-08-11T09:54:44.083Z,1006.97
2017-08-11T09:55:44.065Z,1006.97
2017-08-11T09:56:44.043Z,1006.97
2017-08-11T09:57:44.023Z,1006.93
2017-08-11T09:58:44.005Z,1006.95
2017-08-11T09:59:43.986Z,1006.98
2017-08-11T10:00:43.965Z,1006.98
2017-08-11T10:01:43.944Z,1006.95
2017-08-11T10:02:43.926Z,1006.93
2017-08-11T10:03:43.908Z,1006.94
2017-08-11T10:04:44.095Z,1006.96
2017-08-11T10:05:43.975Z,1006.92
2017-08-11T10:06:43.849Z,1006.97
2017-08-11T10:07:43.830Z,1006.95
2017-08-11T10:08:43.809Z,1006.98
2017-08-11T10:09:43.882Z,1006.98
2017-08-11T10:10:43.872Z,1006.97
2017-08-11T10:11:44.313Z,1006.98
2017-08-11T10:12:43.987Z,1006.99
2017-08-11T10:13:43.713Z,1006.94
2017-08-11T10:14:43.694Z,1006.95
2017-08-11T10:15:43.676Z,1006.98
2017-08-11T10:16:43.655Z,1006.96
2017-08-11T10:17:43.637Z,1006.96
2017-08-11T10:18:43.619Z,1006.92
2017-08-11T10:19:43.599Z,1006.88
2017-08-11T10:20:43.583Z,1006.89
2017-08-11T10:21:43.562Z,1006.88
2017-08-11T10:22:43.541Z,1006.89
2017-08-11T10:23:43.524Z,1006.87
2017-08-11T10:24:43.504Z,1006.86
2017-08-11T10:25:43.485Z,1006.85
2017-08-11T10:26:43.467Z,1006.82
2017-08-11T10:27:43.450Z,1006.88
2017-08-11T10:28:43.430Z,1006.84
2017-08-11T10:29:43.411Z,1006.87
2017-08-11T10:30:43.392Z,1006.81
2017-08-11T10:31:43.373Z,1006.85
2017-08-11T10:32:43.356Z,1006.84
2017-08-11T10:33:43.336Z,1006.82
2017-08-11T10:34:43.317Z,1006.82
2017-08-11T10:35:43.298Z,1006.79
2017-08-11T10:36:43.281Z,1006.82
2017-08-11T10:37:43.261Z,1006.79
2017-08-11T10:38:43.242Z,1006.85
2017-08-11T10:39:43.225Z,1006.89
2017-08-11T10:40:43.206Z,1006.87
2017-08-11T10:41:43.186Z,1006.86
2017-08-11T10:42:43.168Z,1006.88
2017-08-11T10:43:43.150Z,1006.89
2017-08-11T10:44:43.131Z,1006.89
2017-08-11T10:45:43.114Z,1006.85
2017-08-11T10:46:43.095Z,1006.9
2017-08-11T10:47:43.075Z,1006.89
2017-08-11T10:48:43.057Z,1006.85
2017-08-11T10:49:43.038Z,1006.85
2017-08-11T10:50:43.020Z,1006.83
2017-08-11T10:51:43.001Z,1006.83
2017-08-11T10:52:42.982Z,1006.79
2017-08-11T10:53:42.964Z,1006.78
2017-08-11T10:54:42.945Z,1006.78
2017-08-11T10:55:42.926Z,1006.81
2017-08-11T10:56:42.907Z,1006.81
2017-08-11T10:57:42.890Z,1006.78
2017-08-11T10:58:42.870Z,1006.76
2017-08-11T10:59:42.851Z,1006.75
2017-08-11T11:00:42.832Z,1006.72
2017-08-11T11:01:42.814Z,1006.71
2017-08-11T11:02:42.796Z,1006.7
2017-08-11T11:03:42.776Z,1006.71
2017-08-11T11:04:42.758Z,1006.64
2017-08-11T11:05:42.739Z,1006.63
2017-08-11T11:06:42.718Z,1006.7
2017-08-11T11:07:42.701Z,1006.64
2017-08-11T11:08:42.681Z,1006.64
2017-08-11T11:09:42.663Z,1006.66
2017-08-11T11:10:42.642Z,1006.64
2017-08-11T11:11:42.623Z,1006.66
2017-08-11T11:12:42.605Z,1006.64
2017-08-11T11:13:42.585Z,1006.64
2017-08-11T11:14:42.566Z,1006.64
2017-08-11T11:15:42.547Z,1006.63
2017-08-11T11:16:42.529Z,1006.7
2017-08-11T11:17:42.508Z,1006.65
2017-08-11T11:18:42.488Z,1006.67
2017-08-11T11:19:42.470Z,1006.69
2017-08-11T11:20:42.451Z,1006.66
2017-08-11T11:21:42.430Z,1006.63
2017-08-11T11:22:42.410Z,1006.62
2017-08-11T11:23:42.391Z,1006.64
2017-08-11T11:24:42.371Z,1006.6
2017-08-11T11:25:42.351Z,1006.65
2017-08-11T11:26:42.333Z,1006.65
2017-08-11T11:27:42.313Z,1006.71
2017-08-11T11:28:42.294Z,1006.7
2017-08-11T11:29:42.276Z,1006.67
2017-08-11T11:30:42.255Z,1006.63
2017-08-11T11:31:42.235Z,1006.59
2017-08-11T11:32:42.214Z,1006.62
2017-08-11T11:33:42.195Z,1006.52
2017-08-11T11:34:42.175Z,1006.55
2017-08-11T11:35:42.155Z,1006.62
2017-08-11T11:36:42.135Z,1006.62
2017-08-11T11:37:42.117Z,1006.61
2017-08-11T11:38:42.095Z,1006.65
2017-08-11T11:39:42.077Z,1006.65
2017-08-11T11:40:42.057Z,1006.62
2017-08-11T11:41:42.038Z,1006.61
2017-08-11T11:42:42.016Z,1006.57
2017-08-11T11:43:41.995Z,1006.55
2017-08-11T11:44:41.977Z,1006.52
2017-08-11T11:45:41.956Z,1006.48
2017-08-11T11:46:41.936Z,1006.42
2017-08-11T11:47:41.916Z,1006.42
2017-08-11T11:48:41.897Z,1006.42
2017-08-11T11:49:41.877Z,1006.43
2017-08-11T11:50:41.856Z,1006.4
2017-08-11T11:51:41.837Z,1006.4
2017-08-11T11:52:41.816Z,1006.38
2017-08-11T11:53:41.797Z,1006.41
2017-08-11T11:54:41.775Z,1006.39
2017-08-11T11:55:41.755Z,1006.4
2017-08-11T11:56:41.734Z,1006.4
2017-08-11T11:57:41.713Z,1006.42
2017-08-11T11:58:41.692Z,1006.45
2017-08-11T11:59:41.673Z,1006.43
2017-08-11T12:00:41.653Z,1006.42
2017-08-11T12:01:41.630Z,1006.46
2017-08-11T12:02:41.609Z,1006.46
2017-08-11T12:03:41.591Z,1006.45
2017-08-11T12:04:41.568Z,1006.42
2017-08-11T12:05:41.547Z,1006.45
2017-08-11T12:06:41.525Z,1006.42
2017-08-11T12:07:41.509Z,1006.38
2017-08-11T12:08:41.484Z,1006.43